Terminal Aerodrome Forecast
Issued by NWS Sterling, VA

Current Version | Previous Version | Graphics & Text | Print | Product List | Glossary On
Versions: 1 2 3 4 5 6 7 8 9 10 11 12 13 14 15 16
000
FTUS41 KLWX 292300
TAFMRB
TAF
KMRB 292332Z 3000/3024 27006KT P6SM SCT090
     FM301300 32009KT P6SM SCT100
     FM302200 33004KT P6SM SCT045=

USA.gov is the U.S. government's official web portal to all federal, state and local government web resources and services.